Time;durP1;ratioP1;P1;durP2;ratioP2;P2;SDS_P1;SDS_P2;PMS_P1;PMS_P2;Temp;Humidity;BMP_temperature;BMP_pressure;BME280_temperature;BME280_humidity;BME280_pressure;Samples;Min_cycle;Max_cycle;Signal;HPM_P1;HPM_P2
2021/08/15 00:00:07;;;;;;;17.60;11.40;;;;;;;18.01;78.30;99899.56;5107687;28;20027;-65
2021/08/15 00:02:52;;;;;;;19.83;12.10;;;;;;;18.23;78.97;99943.09;5106320;28;20032;-65
2021/08/15 00:05:38;;;;;;;13.80;10.98;;;;;;;18.25;78.84;99939.44;5103934;28;20020;-65
2021/08/15 00:08:24;;;;;;;17.75;11.45;;;;;;;18.24;78.51;99934.28;5102811;28;20084;-64
2021/08/15 00:11:10;;;;;;;17.73;11.40;;;;;;;18.20;79.20;99935.34;5084515;28;20035;-64
2021/08/15 00:13:56;;;;;;;14.10;11.18;;;;;;;18.22;79.44;99928.28;5103400;28;20039;-65
2021/08/15 00:16:42;;;;;;;16.30;11.65;;;;;;;18.24;78.86;99931.66;5099213;28;20028;-65
2021/08/15 00:19:28;;;;;;;14.65;11.18;;;;;;;18.20;78.63;99919.63;5104425;28;20047;-66
2021/08/15 00:22:13;;;;;;;13.48;11.00;;;;;;;18.18;78.92;99932.81;5113251;28;20031;-65
2021/08/15 00:24:59;;;;;;;19.92;11.63;;;;;;;18.19;79.19;99926.66;5125640;28;20080;-63
2021/08/15 00:27:45;;;;;;;16.15;11.07;;;;;;;18.08;79.08;99921.09;5125680;28;20325;-64
2021/08/15 00:30:32;;;;;;;18.05;12.15;;;;;;;18.16;79.18;99928.59;5125253;28;20077;-65
2021/08/15 00:33:17;;;;;;;15.18;10.77;;;;;;;18.13;79.23;99926.09;5125518;28;20024;-65
2021/08/15 00:36:03;;;;;;;17.80;11.38;;;;;;;18.10;79.46;99921.88;5125843;28;20026;-64
2021/08/15 00:38:49;;;;;;;17.17;11.27;;;;;;;18.03;79.75;99917.84;5125414;28;20208;-64
2021/08/15 00:41:35;;;;;;;16.88;11.43;;;;;;;18.00;79.17;99915.34;5125606;28;20080;-64
2021/08/15 00:44:21;;;;;;;17.95;11.57;;;;;;;17.96;80.11;99919.91;5125331;28;20024;-65
2021/08/15 00:47:13;;;;;;;19.90;11.80;;;;;;;17.99;79.76;99911.06;5125980;28;20032;-65
2021/08/15 00:50:00;;;;;;;18.65;11.18;;;;;;;18.01;79.06;99911.81;5124449;28;20027;-65
2021/08/15 00:52:46;;;;;;;15.07;10.75;;;;;;;17.99;79.23;99908.44;5125069;28;20019;-66
2021/08/15 00:55:35;;;;;;;13.38;11.15;;;;;;;17.94;79.88;99920.00;5124911;28;20027;-65
2021/08/15 00:58:21;;;;;;;15.65;11.27;;;;;;;17.96;79.66;99911.19;5125392;28;20051;-66
2021/08/15 01:01:08;;;;;;;18.17;11.55;;;;;;;17.94;79.76;99916.50;5110320;28;20107;-66
2021/08/15 01:03:54;;;;;;;17.75;11.13;;;;;;;17.94;79.65;99913.88;5118930;28;20036;-66
2021/08/15 01:06:40;;;;;;;17.88;11.43;;;;;;;17.95;79.76;99918.22;5104503;28;20047;-65
2021/08/15 01:09:26;;;;;;;16.75;11.45;;;;;;;17.87;79.69;99917.69;5103791;28;20028;-65
2021/08/15 01:12:12;;;;;;;16.13;11.02;;;;;;;17.83;79.88;99908.28;5103132;28;20028;-64
2021/08/15 01:14:58;;;;;;;14.95;11.68;;;;;;;17.79;79.57;99902.34;5103111;28;20084;-64
2021/08/15 01:17:45;;;;;;;19.00;11.70;;;;;;;17.84;79.45;99910.84;5103229;28;20355;-64
2021/08/15 01:20:31;;;;;;;21.83;11.95;;;;;;;17.77;80.14;99899.81;5102671;28;20206;-64
2021/08/15 01:23:16;;;;;;;20.52;12.02;;;;;;;17.83;80.35;99905.66;5120366;28;20054;-64
2021/08/15 01:26:03;;;;;;;18.98;11.98;;;;;;;17.79;80.07;99909.38;5123553;28;20035;-64
2021/08/15 01:28:51;;;;;;;20.23;11.70;;;;;;;17.76;80.60;99892.88;5124156;28;20030;-65
2021/08/15 01:31:37;;;;;;;18.27;11.95;;;;;;;17.74;80.36;99886.00;5124250;28;20027;-65
2021/08/15 01:34:23;;;;;;;18.95;12.23;;;;;;;17.75;80.25;99899.00;5124395;28;20027;-65
2021/08/15 01:37:11;;;;;;;17.10;11.68;;;;;;;17.71;81.20;99891.38;5123274;28;20020;-65
2021/08/15 01:40:02;;;;;;;16.67;11.70;;;;;;;17.70;80.70;99889.69;5123619;28;20400;-65
2021/08/15 01:42:48;;;;;;;16.52;11.38;;;;;;;17.71;80.97;99894.84;5124952;28;20033;-65
2021/08/15 01:45:34;;;;;;;19.60;11.20;;;;;;;17.70;80.76;99887.94;5123878;28;20754;-65
2021/08/15 01:48:20;;;;;;;16.73;12.00;;;;;;;17.71;81.01;99891.38;5122839;28;20031;-65
2021/08/15 01:51:06;;;;;;;17.65;11.68;;;;;;;17.65;80.80;99889.06;5124410;28;20020;-64
2021/08/15 01:53:55;;;;;;;18.45;12.57;;;;;;;17.55;81.56;99896.50;5123958;28;20049;-64
2021/08/15 01:56:40;;;;;;;20.05;12.60;;;;;;;17.53;81.54;99885.25;5123681;28;20094;-65
2021/08/15 01:59:27;;;;;;;17.95;13.02;;;;;;;17.45;81.81;99895.25;5132964;27;20292;-64
2021/08/15 02:02:13;;;;;;;19.15;12.93;;;;;;;17.46;81.38;99894.31;5142993;27;20038;-64
2021/08/15 02:04:59;;;;;;;17.23;12.70;;;;;;;17.49;80.98;99891.56;5128600;27;20031;-64
2021/08/15 02:07:46;;;;;;;18.00;12.85;;;;;;;17.51;80.71;99889.72;5122606;28;20030;-64
2021/08/15 02:10:32;;;;;;;21.92;13.40;;;;;;;17.40;80.72;99888.44;5123157;28;20019;-64
2021/08/15 02:13:18;;;;;;;17.67;13.02;;;;;;;17.44;80.88;99894.38;5122741;28;20019;-65
2021/08/15 02:16:04;;;;;;;18.85;12.20;;;;;;;17.50;80.87;99888.00;5121836;28;20047;-65
2021/08/15 02:18:50;;;;;;;18.27;13.30;;;;;;;17.37;81.18;99887.72;5123581;28;20039;-65
2021/08/15 02:21:36;;;;;;;17.17;12.70;;;;;;;17.46;80.83;99892.56;5121150;28;20051;-65
2021/08/15 02:24:21;;;;;;;18.15;12.73;;;;;;;17.53;80.42;99891.34;5134638;27;20123;-65
2021/08/15 02:27:07;;;;;;;20.00;13.13;;;;;;;17.49;80.28;99889.78;5143270;27;20031;-65
2021/08/15 02:29:53;;;;;;;19.92;13.77;;;;;;;17.40;81.14;99900.69;5143208;27;20091;-65
2021/08/15 02:32:40;;;;;;;21.52;13.60;;;;;;;17.41;81.32;99895.41;5143221;27;20102;-64
2021/08/15 02:35:31;;;;;;;19.23;14.57;;;;;;;17.27;81.61;99887.31;5143919;27;20027;-65
2021/08/15 02:38:17;;;;;;;17.15;13.52;;;;;;;17.23;81.61;99891.84;5142758;27;20216;-65
2021/08/15 02:41:03;;;;;;;20.40;12.40;;;;;;;17.38;81.97;99895.50;5143289;27;20019;-64
2021/08/15 02:43:49;;;;;;;17.60;12.38;;;;;;;17.35;81.38;99886.97;5142969;27;20030;-64
2021/08/15 02:46:35;;;;;;;20.52;13.90;;;;;;;17.22;82.26;99886.69;5142990;27;20035;-65
2021/08/15 02:49:20;;;;;;;22.55;14.38;;;;;;;17.30;82.21;99891.56;5143481;27;20023;-64
2021/08/15 02:52:07;;;;;;;19.23;13.88;;;;;;;17.39;81.25;99880.66;5142731;27;20015;-64
2021/08/15 02:54:53;;;;;;;25.15;14.05;;;;;;;17.51;80.86;99884.47;5142301;27;20098;-64
2021/08/15 02:57:39;;;;;;;19.77;13.50;;;;;;;17.54;81.16;99884.31;5141810;27;20051;-63
2021/08/15 03:00:25;;;;;;;20.65;12.98;;;;;;;17.58;81.32;99880.66;5142579;27;20073;-64
2021/08/15 03:03:11;;;;;;;18.73;13.38;;;;;;;17.65;80.99;99879.44;5142994;28;20106;-65
2021/08/15 03:05:57;;;;;;;17.83;13.70;;;;;;;17.69;81.16;99880.16;5101392;28;20020;-65
2021/08/15 03:08:43;;;;;;;18.98;13.30;;;;;;;17.68;81.45;99870.59;5100357;28;20039;-65
2021/08/15 03:11:29;;;;;;;20.15;13.75;;;;;;;17.71;81.07;99870.44;5100597;28;20050;-65
2021/08/15 03:14:15;;;;;;;21.88;14.07;;;;;;;17.77;80.84;99864.88;5101451;28;20016;-65
2021/08/15 03:17:00;;;;;;;17.15;13.65;;;;;;;17.82;80.95;99864.69;5101470;28;20036;-64
2021/08/15 03:19:46;;;;;;;21.63;14.68;;;;;;;17.77;81.19;99855.28;5102184;28;20031;-65
2021/08/15 03:22:32;;;;;;;24.85;14.27;;;;;;;17.73;81.59;99866.81;5116554;28;20027;-65
2021/08/15 03:25:18;;;;;;;17.98;14.13;;;;;;;17.79;80.81;99877.94;5141998;28;20069;-65
2021/08/15 03:28:05;;;;;;;21.98;14.00;;;;;;;17.80;80.15;99863.91;5128661;28;20030;-66
2021/08/15 03:30:51;;;;;;;19.95;14.68;;;;;;;17.95;80.22;99865.81;5141897;28;20035;-66
2021/08/15 03:33:37;;;;;;;20.55;13.18;;;;;;;18.05;79.86;99866.19;5143022;28;20031;-65
2021/08/15 03:36:23;;;;;;;20.85;13.55;;;;;;;18.10;80.04;99866.84;5142160;28;20015;-66
2021/08/15 03:39:09;;;;;;;20.77;13.60;;;;;;;17.97;79.42;99834.28;5142720;27;20053;-66
2021/08/15 03:41:58;;;;;;;22.38;13.40;;;;;;;18.19;79.27;99868.16;5145739;27;20029;-65
2021/08/15 03:44:44;;;;;;;16.77;12.70;;;;;;;18.24;79.20;99855.63;5146270;27;20027;-65
2021/08/15 03:47:31;;;;;;;16.90;12.68;;;;;;;18.28;79.15;99855.41;5146430;27;20019;-65
2021/08/15 03:50:17;;;;;;;20.35;13.10;;;;;;;18.37;79.03;99861.09;5146358;27;20027;-64
2021/08/15 03:53:03;;;;;;;18.17;12.25;;;;;;;18.44;78.83;99860.72;5145759;27;20023;-65
2021/08/15 03:55:49;;;;;;;16.30;12.65;;;;;;;18.52;78.77;99864.72;5146112;27;20216;-65
2021/08/15 03:58:35;;;;;;;18.65;12.45;;;;;;;18.58;78.08;99861.78;5145747;27;20074;-65
2021/08/15 04:01:21;;;;;;;19.40;12.90;;;;;;;18.64;77.01;99861.47;5146035;27;20034;-65
2021/08/15 04:04:07;;;;;;;21.48;12.18;;;;;;;18.64;76.95;99850.97;5138428;27;20024;-65
2021/08/15 04:06:53;;;;;;;16.48;12.50;;;;;;;18.72;76.59;99859.28;5123902;28;20035;-65
2021/08/15 04:09:39;;;;;;;16.52;11.60;;;;;;;18.77;76.82;99857.28;5125251;28;20031;-66
2021/08/15 04:12:25;;;;;;;17.00;11.27;;;;;;;18.86;76.64;99860.34;5125086;28;20027;-65
2021/08/15 04:15:11;;;;;;;18.83;12.00;;;;;;;18.90;76.18;99854.88;5124405;28;20024;-65
2021/08/15 04:17:57;;;;;;;17.48;10.32;;;;;;;18.91;75.54;99853.94;5125371;28;20036;-66
2021/08/15 04:20:44;;;;;;;15.63;10.73;;;;;;;18.95;75.36;99859.88;5125110;28;20317;-66
2021/08/15 04:23:32;;;;;;;14.05;9.93;;;;;;;18.99;74.53;99866.66;5136993;27;20146;-66
2021/08/15 04:26:18;;;;;;;16.13;9.95;;;;;;;19.13;74.70;99861.50;5145485;27;20026;-66
2021/08/15 04:29:04;;;;;;;13.45;10.05;;;;;;;19.19;74.78;99848.97;5145569;27;20034;-64
2021/08/15 04:31:50;;;;;;;14.13;9.77;;;;;;;19.25;74.26;99841.63;5144907;27;20027;-65
2021/08/15 04:34:36;;;;;;;14.75;9.18;;;;;;;19.30;73.59;99844.00;5146009;27;20027;-64
2021/08/15 04:37:21;;;;;;;13.75;9.00;;;;;;;19.27;73.48;99841.53;5144863;27;20019;-66
2021/08/15 04:40:10;;;;;;;15.23;8.70;;;;;;;19.15;73.30;99790.53;5145640;27;20050;-66
2021/08/15 04:42:56;;;;;;;12.93;8.05;;;;;;;19.54;73.10;99844.41;5143239;27;20094;-66
2021/08/15 04:45:42;;;;;;;11.75;8.27;;;;;;;19.65;73.04;99836.75;5123609;28;20031;-65
2021/08/15 04:48:28;;;;;;;11.75;8.48;;;;;;;19.71;73.09;99838.19;5124988;28;20026;-65
2021/08/15 04:51:14;;;;;;;12.30;8.20;;;;;;;19.78;72.59;99829.03;5105697;28;20236;-65
2021/08/15 04:54:00;;;;;;;12.55;8.20;;;;;;;19.79;71.58;99830.72;5125780;28;20034;-65
2021/08/15 04:56:46;;;;;;;8.85;7.05;;;;;;;19.92;71.94;99827.41;5124366;28;20027;-66
2021/08/15 04:59:32;;;;;;;13.48;7.85;;;;;;;20.03;71.72;99827.63;5124217;28;20130;-65
2021/08/15 05:02:18;;;;;;;12.98;7.32;;;;;;;20.10;70.46;99813.19;5123876;28;20289;-65
2021/08/15 05:05:04;;;;;;;13.77;7.53;;;;;;;20.19;70.66;99817.03;5124439;28;20030;-65
2021/08/15 05:07:50;;;;;;;13.20;7.03;;;;;;;20.28;69.43;99821.78;5123932;28;20051;-65
2021/08/15 05:10:36;;;;;;;9.20;6.93;;;;;;;20.45;70.24;99815.50;5124917;28;20027;-66
2021/08/15 05:13:22;;;;;;;9.48;7.03;;;;;;;20.64;69.20;99817.00;5123230;28;20228;-65
2021/08/15 05:16:08;;;;;;;11.75;6.65;;;;;;;20.88;67.00;99816.44;5123596;28;20027;-65
2021/08/15 05:18:54;;;;;;;10.40;6.93;;;;;;;21.16;67.96;99813.78;5123355;28;20030;-66
2021/08/15 05:21:40;;;;;;;9.65;6.47;;;;;;;21.14;65.23;99814.81;5126586;27;20022;-66
2021/08/15 05:24:26;;;;;;;9.23;6.18;;;;;;;21.26;67.06;99815.81;5144238;27;20080;-65
2021/08/15 05:27:11;;;;;;;9.63;6.60;;;;;;;21.25;64.95;99803.59;5143600;27;20030;-65
2021/08/15 05:29:57;;;;;;;9.38;5.78;;;;;;;21.17;65.44;99799.66;5145189;27;20098;-66
2021/08/15 05:32:43;;;;;;;8.45;6.07;;;;;;;21.29;65.00;99797.19;5144775;27;20027;-66
2021/08/15 05:35:29;;;;;;;12.55;5.97;;;;;;;21.41;65.10;99793.75;5143893;27;20092;-67
2021/08/15 05:38:15;;;;;;;9.10;5.85;;;;;;;21.51;65.37;99797.53;5144485;27;20339;-66
2021/08/15 05:41:01;;;;;;;8.25;5.65;;;;;;;21.47;64.54;99788.09;5144698;27;20029;-66
2021/08/15 05:43:47;;;;;;;8.95;5.70;;;;;;;21.61;64.74;99779.31;5144345;27;20080;-65
2021/08/15 05:46:33;;;;;;;8.98;6.13;;;;;;;21.63;64.29;99781.84;5144688;27;20033;-66
2021/08/15 05:49:19;;;;;;;9.95;5.53;;;;;;;21.68;62.93;99782.41;5142960;27;20019;-67
2021/08/15 05:52:05;;;;;;;9.00;5.65;;;;;;;21.80;64.42;99778.09;5144582;27;20026;-67
2021/08/15 05:54:51;;;;;;;7.18;5.47;;;;;;;21.79;63.49;99774.63;5142219;27;20027;-66
2021/08/15 05:57:37;;;;;;;9.25;5.95;;;;;;;21.84;64.27;99775.13;5143546;27;20035;-66
2021/08/15 06:00:23;;;;;;;7.35;5.03;;;;;;;21.93;64.15;99778.09;5144919;27;20212;-65
2021/08/15 06:03:08;;;;;;;10.18;5.50;;;;;;;21.96;62.77;99770.00;5143687;27;20031;-67
2021/08/15 06:05:54;;;;;;;9.85;4.97;;;;;;;21.91;59.97;99769.47;5103492;28;20024;-64
2021/08/15 06:08:40;;;;;;;10.27;5.22;;;;;;;22.01;61.78;99773.16;5102303;28;20028;-68
2021/08/15 06:11:26;;;;;;;8.65;4.90;;;;;;;22.08;61.51;99766.53;5102693;28;20036;-65
2021/08/15 06:14:16;;;;;;;8.32;5.00;;;;;;;22.09;60.75;99765.59;5102039;28;20028;-66
2021/08/15 06:17:02;;;;;;;10.15;5.30;;;;;;;22.05;60.73;99767.56;5102570;28;20039;-66
2021/08/15 06:19:48;;;;;;;8.23;4.93;;;;;;;22.06;59.47;99763.13;5103450;28;20039;-68
2021/08/15 06:22:43;;;;;;;10.25;5.28;;;;;;;22.10;60.10;99743.50;5118085;27;20090;-67
2021/08/15 06:25:29;;;;;;;7.43;4.30;;;;;;;22.26;59.54;99764.44;5143202;27;20046;-67
2021/08/15 06:28:15;;;;;;;5.45;4.28;;;;;;;22.38;59.06;99771.50;5141816;27;20030;-67
2021/08/15 06:31:01;;;;;;;7.22;4.82;;;;;;;22.44;59.35;99764.97;5143174;27;20046;-66
2021/08/15 06:33:47;;;;;;;8.88;4.63;;;;;;;22.50;58.06;99758.41;5143106;27;20316;-66
2021/08/15 06:36:33;;;;;;;5.72;4.47;;;;;;;22.60;58.23;99755.97;5142441;27;20029;-67
2021/08/15 06:39:19;;;;;;;8.10;5.15;;;;;;;22.68;58.15;99756.28;5141587;27;20023;-67
2021/08/15 06:42:05;;;;;;;7.28;4.35;;;;;;;22.76;56.38;99759.22;5143103;27;20027;-67
2021/08/15 06:44:51;;;;;;;6.47;4.95;;;;;;;22.68;56.94;99764.19;5121679;27;20342;-67
2021/08/15 06:47:37;;;;;;;7.00;4.68;;;;;;;22.81;55.45;99757.09;5100708;28;20275;-66
2021/08/15 06:50:23;;;;;;;8.95;4.60;;;;;;;22.80;55.92;99736.06;5119289;28;20034;-65
2021/08/15 06:53:09;;;;;;;5.82;4.38;;;;;;;22.83;56.09;99749.91;5110734;28;20030;-67
2021/08/15 06:55:57;;;;;;;6.65;4.70;;;;;;;22.95;57.27;99753.47;5108841;28;20190;-68
2021/08/15 06:58:44;;;;;;;8.15;4.68;;;;;;;23.00;57.22;99729.34;5116384;28;20063;-67
2021/08/15 07:01:30;;;;;;;8.88;4.53;;;;;;;23.10;56.49;99746.19;5114685;28;20039;-67
2021/08/15 07:04:15;;;;;;;5.78;4.43;;;;;;;23.11;56.87;99737.38;5121535;28;20066;-66
2021/08/15 07:07:01;;;;;;;4.57;4.10;;;;;;;23.16;56.51;99734.38;5119375;28;20394;-66
2021/08/15 07:09:47;;;;;;;8.93;4.30;;;;;;;23.16;55.91;99739.66;5128246;28;20342;-66
2021/08/15 07:12:34;;;;;;;5.72;3.97;;;;;;;23.29;57.00;99734.31;5142409;28;20027;-67
2021/08/15 07:15:20;;;;;;;8.63;4.55;;;;;;;23.28;54.77;99736.13;5145186;27;20019;-66
2021/08/15 07:18:06;;;;;;;8.50;4.05;;;;;;;23.38;56.43;99736.28;5131766;27;20029;-67
2021/08/15 07:20:57;;;;;;;7.15;5.00;;;;;;;23.54;57.12;99738.63;5130961;27;20381;-67
2021/08/15 07:23:43;;;;;;;5.13;4.18;;;;;;;23.68;56.56;99732.31;5106884;28;20063;-67
2021/08/15 07:26:30;;;;;;;6.53;4.60;;;;;;;23.60;56.44;99728.44;5106320;28;20217;-66
2021/08/15 07:29:15;;;;;;;9.77;5.07;;;;;;;23.71;56.02;99730.25;5106267;28;20020;-67
2021/08/15 07:32:02;;;;;;;6.88;3.97;;;;;;;23.76;54.80;99740.50;5106088;28;20051;-67
2021/08/15 07:34:49;;;;;;;5.13;4.30;;;;;;;23.67;54.91;99742.06;5106806;28;20275;-68
2021/08/15 07:37:35;;;;;;;7.97;4.63;;;;;;;23.71;56.07;99734.72;5106300;28;20035;-67
2021/08/15 07:40:21;;;;;;;8.00;4.65;;;;;;;23.74;56.55;99729.19;5097659;28;20267;-67
2021/08/15 07:43:07;;;;;;;5.05;4.40;;;;;;;23.71;55.85;99737.38;5105762;28;20032;-67
2021/08/15 07:45:57;;;;;;;5.57;4.60;;;;;;;23.67;55.22;99726.19;5119907;28;20038;-66
2021/08/15 07:48:43;;;;;;;9.77;4.68;;;;;;;23.56;54.49;99716.41;5111412;28;20039;-66
2021/08/15 07:51:29;;;;;;;7.50;4.93;;;;;;;23.71;55.28;99713.56;5117165;28;20066;-66
2021/08/15 07:54:15;;;;;;;13.77;5.32;;;;;;;23.86;55.94;99724.78;5113505;28;20220;-66
2021/08/15 07:57:00;;;;;;;6.97;4.80;;;;;;;23.92;54.83;99727.81;5116361;28;20068;-67
2021/08/15 07:59:47;;;;;;;9.68;5.07;;;;;;;23.91;53.77;99720.88;5112544;28;20106;-67
2021/08/15 08:02:33;;;;;;;5.70;4.47;;;;;;;23.91;53.43;99728.81;5114132;28;20321;-66
2021/08/15 08:05:19;;;;;;;6.05;4.70;;;;;;;23.98;52.74;99730.97;5107119;28;20110;-65
2021/08/15 08:08:05;;;;;;;8.38;4.53;;;;;;;23.92;52.38;99721.69;5116481;28;20043;-67
2021/08/15 08:10:54;;;;;;;7.53;4.35;;;;;;;23.88;51.15;99721.06;5117542;28;20102;-65
2021/08/15 08:13:39;;;;;;;7.05;4.60;;;;;;;23.88;52.19;99722.88;5118133;28;20381;-67
2021/08/15 08:16:25;;;;;;;7.50;4.82;;;;;;;24.06;53.34;99708.25;5126449;28;20024;-66
2021/08/15 08:19:11;;;;;;;7.05;4.80;;;;;;;24.08;54.25;99708.94;5118561;28;20031;-66
2021/08/15 08:21:57;;;;;;;7.30;4.75;;;;;;;24.22;53.43;99702.59;5122713;27;20232;-66
2021/08/15 08:24:43;;;;;;;4.93;4.40;;;;;;;24.21;53.19;99708.84;5121715;28;20086;-67
2021/08/15 08:27:29;;;;;;;9.32;4.20;;;;;;;24.35;52.57;99701.63;5119367;28;20046;-65
2021/08/15 08:30:15;;;;;;;6.97;4.40;;;;;;;24.41;51.09;99703.78;5115733;28;20056;-66
2021/08/15 08:33:01;;;;;;;6.88;4.28;;;;;;;24.46;52.96;99689.22;5117622;28;20030;-66
2021/08/15 08:35:47;;;;;;;6.60;4.60;;;;;;;24.51;52.45;99690.66;5102654;28;20030;-66
2021/08/15 08:38:33;;;;;;;5.18;4.55;;;;;;;24.64;52.25;99700.19;5122644;28;20031;-66
2021/08/15 08:41:20;;;;;;;6.20;4.30;;;;;;;24.70;51.29;99696.22;5122729;28;20222;-67
2021/08/15 08:44:09;;;;;;;5.95;4.30;;;;;;;24.81;50.18;99693.53;5117410;28;20024;-67
2021/08/15 08:47:00;;;;;;;7.25;4.28;;;;;;;25.05;51.10;99670.44;5110863;28;20065;-67
2021/08/15 08:49:46;;;;;;;8.63;4.38;;;;;;;25.31;52.17;99682.44;5114816;28;20320;-67
2021/08/15 08:52:32;;;;;;;6.47;4.18;;;;;;;25.40;51.73;99682.63;5120999;28;20054;-65
2021/08/15 08:55:19;;;;;;;6.15;4.43;;;;;;;25.36;49.20;99686.50;5116406;28;20031;-66
2021/08/15 08:58:07;;;;;;;8.85;3.95;;;;;;;25.53;49.51;99675.31;5115722;28;20105;-68
2021/08/15 09:00:53;;;;;;;7.78;4.63;;;;;;;25.61;49.68;99675.50;5118032;28;20061;-68
2021/08/15 09:03:44;;;;;;;5.80;3.92;;;;;;;25.48;49.35;99665.09;5116536;28;20384;-67
2021/08/15 09:06:30;;;;;;;10.25;4.18;;;;;;;25.66;49.22;99660.03;5108724;28;20068;-67
2021/08/15 09:09:19;;;;;;;5.78;3.60;;;;;;;25.69;48.17;99661.59;5114885;28;20221;-66
2021/08/15 09:12:06;;;;;;;6.15;3.90;;;;;;;25.75;50.40;99661.09;5109531;28;20103;-67
2021/08/15 09:15:16;;;;;;;7.03;5.03;;;;;;;25.80;51.27;99652.72;5113858;28;20039;-68
2021/08/15 09:18:02;;;;;;;6.07;4.43;;;;;;;25.81;49.04;99659.69;5117514;27;20023;-66
2021/08/15 09:20:48;;;;;;;6.95;4.20;;;;;;;25.92;49.39;99643.69;5124930;27;20028;-68
2021/08/15 09:23:34;;;;;;;7.40;4.20;;;;;;;25.83;46.56;99642.66;5117545;27;20027;-67
2021/08/15 09:26:21;;;;;;;6.43;4.30;;;;;;;26.09;48.67;99644.06;5119481;28;20205;-67
2021/08/15 09:29:16;;;;;;;4.60;3.90;;;;;;;26.13;47.96;99645.50;5123946;27;20019;-67
2021/08/15 09:32:02;;;;;;;6.28;4.30;;;;;;;26.13;47.33;99638.34;5122440;27;20316;-67
2021/08/15 09:34:57;;;;;;;8.68;4.55;;;;;;;25.91;48.84;99627.88;5118380;28;20099;-66
2021/08/15 09:37:43;;;;;;;6.40;3.78;;;;;;;25.92;48.48;99627.75;5121466;28;20023;-65
2021/08/15 09:40:43;;;;;;;9.55;4.60;;;;;;;25.90;47.09;99627.06;5119644;28;20028;-66
2021/08/15 09:43:30;;;;;;;6.68;4.60;;;;;;;26.05;47.92;99629.38;5119253;28;20031;-65
2021/08/15 09:46:16;;;;;;;6.78;4.20;;;;;;;26.04;47.81;99625.03;5126503;27;20035;-65
2021/08/15 09:49:13;;;;;;;6.07;4.00;;;;;;;26.09;48.53;99615.69;5142379;27;20356;-65
2021/08/15 09:52:00;;;;;;;5.38;4.63;;;;;;;26.16;48.62;99602.72;5128621;27;20038;-66
2021/08/15 09:55:02;;;;;;;8.77;4.50;;;;;;;26.17;48.00;99610.56;5122330;28;20031;-66
2021/08/15 09:57:47;;;;;;;;;;;;;;;26.12;48.29;99602.19;5113465;27;20260;-68
2021/08/15 10:00:33;;;;;;;9.48;3.95;;;;;;;25.97;47.46;99603.50;5104077;28;20168;-64
2021/08/15 10:03:19;;;;;;;12.27;5.03;;;;;;;25.88;49.10;99598.97;5102574;28;20112;-66
2021/08/15 10:06:05;;;;;;;6.38;4.38;;;;;;;25.85;49.22;99584.16;5102740;28;20031;-68
2021/08/15 10:08:51;;;;;;;7.50;4.82;;;;;;;25.78;47.43;99580.34;5101798;28;20024;-66
2021/08/15 10:11:38;;;;;;;5.25;4.18;;;;;;;25.73;48.85;99561.38;5102572;28;20050;-66
2021/08/15 10:14:24;;;;;;;6.25;4.15;;;;;;;26.03;48.71;99576.44;5087837;28;20024;-66
2021/08/15 10:17:14;;;;;;;4.82;4.20;;;;;;;25.77;48.00;99542.38;5091570;28;20217;-66
2021/08/15 10:20:03;;;;;;;6.25;4.30;;;;;;;26.03;47.39;99599.50;5083933;28;20043;-66
2021/08/15 10:22:50;;;;;;;6.97;4.30;;;;;;;26.12;48.33;99574.78;5109044;28;20427;-66
2021/08/15 10:25:41;;;;;;;6.00;4.57;;;;;;;25.72;45.82;99541.09;5122249;28;20033;-66
2021/08/15 10:28:29;;;;;;;6.13;4.45;;;;;;;26.07;47.76;99575.19;5109721;28;20024;-65
2021/08/15 10:31:15;;;;;;;7.95;4.03;;;;;;;26.06;47.07;99568.19;5103218;28;20032;-66
2021/08/15 10:34:04;;;;;;;7.70;4.32;;;;;;;26.11;46.71;99571.28;5102405;28;20116;-66
2021/08/15 10:37:25;;;;;;;5.63;4.22;;;;;;;26.06;48.63;99570.03;5089360;28;20035;-65
2021/08/15 10:40:45;;;;;;;7.32;4.22;;;;;;;25.93;46.85;99573.72;5103794;28;20116;-65
2021/08/15 10:43:31;;;;;;;5.25;4.63;;;;;;;25.95;47.90;99563.81;5106649;28;20023;-66
2021/08/15 10:46:18;;;;;;;6.22;4.60;;;;;;;25.92;48.94;99558.75;5122449;28;20032;-68
2021/08/15 10:49:08;;;;;;;4.53;4.13;;;;;;;26.03;49.17;99541.09;5121555;28;20031;-66
2021/08/15 10:51:54;;;;;;;7.57;4.40;;;;;;;26.01;47.70;99539.41;5081473;28;20033;-64
2021/08/15 10:54:39;;;;;;;6.82;4.40;;;;;;;26.11;46.67;99546.53;5082959;28;20313;-64
2021/08/15 10:57:41;;;;;;;6.07;4.70;;;;;;;26.21;47.67;99547.44;5081443;28;20099;-65
2021/08/15 11:00:34;;;;;;;4.07;3.67;;;;;;;26.30;47.56;99532.47;5067393;28;20055;-64
2021/08/15 11:03:23;;;;;;;;;;;;;;;26.38;47.14;99534.44;5069157;28;20103;-67
2021/08/15 11:06:39;;;;;;;7.15;4.32;;;;;;;26.25;48.44;99524.06;5101791;28;19976;-65
2021/08/15 11:09:55;;;;;;;8.15;4.30;;;;;;;26.19;47.41;99530.78;5101322;28;20023;-66
2021/08/15 11:13:16;;;;;;;5.57;4.30;;;;;;;26.35;47.67;99531.09;5096245;28;20028;-65
2021/08/15 11:16:26;;;;;;;7.63;4.50;;;;;;;26.38;47.23;99532.63;5103122;28;20016;-64
2021/08/15 11:19:15;;;;;;;6.95;4.85;;;;;;;26.39;48.75;99536.13;5087385;28;20028;-65
2021/08/15 11:22:16;;;;;;;9.00;4.85;;;;;;;26.25;47.04;99535.56;5096338;28;20025;-64
2021/08/15 11:25:03;;;;;;;8.18;4.45;;;;;;;26.28;47.52;99545.03;5101640;28;20032;-65
2021/08/15 11:27:50;;;;;;;5.13;4.38;;;;;;;26.00;47.97;99500.56;5100484;28;20086;-66
2021/08/15 11:30:37;;;;;;;8.77;4.75;;;;;;;26.11;48.18;99535.91;5101934;28;20020;-64
2021/08/15 11:33:23;;;;;;;4.75;4.22;;;;;;;26.15;48.26;99535.53;5101413;28;20036;-64
2021/08/15 11:36:14;;;;;;;7.78;4.10;;;;;;;26.16;48.17;99533.72;5085230;28;20024;-65
2021/08/15 11:39:00;;;;;;;7.70;4.60;;;;;;;26.29;47.97;99525.47;5102261;28;20134;-65
2021/08/15 11:41:46;;;;;;;5.68;4.57;;;;;;;26.12;48.42;99524.34;5102509;28;20210;-65
2021/08/15 11:44:58;;;;;;;5.20;4.70;;;;;;;26.20;48.32;99521.84;5102283;28;20032;-64
2021/08/15 11:47:44;;;;;;;8.73;4.53;;;;;;;26.17;48.64;99511.50;5099560;28;20028;-65
2021/08/15 11:50:32;;;;;;;6.55;4.82;;;;;;;25.98;48.69;99483.91;5102054;28;20090;-66
2021/08/15 11:53:29;;;;;;;5.65;4.25;;;;;;;26.33;49.15;99506.47;5102304;28;20028;-66
2021/08/15 11:56:20;;;;;;;5.85;4.47;;;;;;;26.27;48.26;99507.03;5101920;28;20035;-66
2021/08/15 11:59:08;;;;;;;7.30;4.78;;;;;;;26.15;49.16;99497.50;5117079;28;20044;-66
2021/08/15 12:01:54;;;;;;;10.85;4.97;;;;;;;25.96;48.45;99498.31;5119262;28;20028;-65
2021/08/15 12:04:40;;;;;;;7.13;4.78;;;;;;;25.98;48.34;99497.19;5114868;28;20571;-66
2021/08/15 12:07:27;;;;;;;7.10;4.50;;;;;;;26.21;48.81;99486.34;5104408;28;20265;-66
2021/08/15 12:10:29;;;;;;;10.65;4.88;;;;;;;26.07;48.29;99449.59;5104763;28;20027;-66
2021/08/15 12:13:36;;;;;;;5.93;4.70;;;;;;;26.39;48.80;99490.97;5104654;28;20099;-65
2021/08/15 12:16:24;;;;;;;5.28;4.35;;;;;;;26.13;47.29;99446.38;5095945;28;20236;-65
2021/08/15 12:19:21;;;;;;;10.25;5.50;;;;;;;26.17;47.45;99448.63;5104668;28;20031;-66
2021/08/15 12:22:18;;;;;;;8.23;5.32;;;;;;;26.43;47.53;99473.78;5094888;28;20020;-64
2021/08/15 12:25:04;;;;;;;7.20;5.22;;;;;;;26.38;47.23;99474.22;5124212;28;20051;-65
2021/08/15 12:27:50;;;;;;;8.60;5.13;;;;;;;26.42;48.05;99480.06;5125819;28;20095;-66
2021/08/15 12:30:37;;;;;;;6.57;4.82;;;;;;;26.41;47.94;99473.06;5110882;28;20027;-65
2021/08/15 12:33:25;;;;;;;6.20;4.72;;;;;;;26.29;47.90;99473.19;5123971;28;20040;-65
2021/08/15 12:36:16;;;;;;;7.00;4.55;;;;;;;26.32;48.22;99464.97;5126062;28;20431;-65
2021/08/15 12:39:06;;;;;;;5.75;4.55;;;;;;;26.34;47.54;99470.16;5120998;28;20053;-68
2021/08/15 12:42:01;;;;;;;6.18;4.57;;;;;;;26.12;48.48;99428.78;5125590;28;20051;-64
2021/08/15 12:44:50;;;;;;;11.07;5.80;;;;;;;26.32;50.18;99480.06;5125732;28;20035;-65
2021/08/15 12:47:38;;;;;;;7.68;5.10;;;;;;;26.09;48.00;99418.44;5124723;28;20059;-65
2021/08/15 12:50:24;;;;;;;6.25;5.00;;;;;;;26.36;47.96;99457.56;5125514;28;20023;-67
2021/08/15 12:53:15;;;;;;;10.73;5.22;;;;;;;26.35;48.77;99462.03;5125421;28;20020;-69
2021/08/15 12:56:15;;;;;;;10.15;5.38;;;;;;;26.14;47.82;99417.03;5108841;28;20027;-69
2021/08/15 12:59:01;;;;;;;8.73;5.38;;;;;;;26.39;49.12;99461.75;5112529;28;20213;-69
2021/08/15 13:01:47;;;;;;;7.05;5.10;;;;;;;26.21;49.07;99459.81;5107261;28;20023;-65